Time;durP1;ratioP1;P1;durP2;ratioP2;P2;SDS_P1;SDS_P2;PMS_P1;PMS_P2;Temp;Humidity;BMP_temperature;BMP_pressure;BME280_temperature;BME280_humidity;BME280_pressure;Samples;Min_cycle;Max_cycle;Signal;HPM_P1;HPM_P2
2022/10/26 00:01:30;;;;;;;3.20;2.30;;;-15.40;99.90;;;;;;5035315;28;20213;-75
2022/10/26 00:03:56;;;;;;;5.33;2.37;;;-15.30;99.90;;;;;;5035553;28;20501;-75
2022/10/26 00:06:26;;;;;;;11.30;3.00;;;-15.30;99.90;;;;;;5035033;28;20234;-77
2022/10/26 00:08:53;;;;;;;12.47;2.17;;;-13.40;99.90;;;;;;5027091;28;20225;-74
2022/10/26 00:11:19;;;;;;;9.57;2.60;;;-13.60;99.90;;;;;;5023481;28;20649;-74
2022/10/26 00:13:46;;;;;;;5.70;2.77;;;-12.90;99.90;;;;;;5027020;28;20177;-76
2022/10/26 00:16:16;;;;;;;4.23;1.80;;;-14.20;99.90;;;;;;5044750;28;20616;-77
2022/10/26 00:18:41;;;;;;;8.50;2.13;;;-14.40;99.90;;;;;;5035312;28;20607;-78
2022/10/26 00:21:09;;;;;;;5.80;2.87;;;-15.60;99.90;;;;;;5035247;28;20189;-77
2022/10/26 00:23:35;;;;;;;4.70;3.10;;;-12.70;99.90;;;;;;5027478;28;20205;-75
2022/10/26 00:26:01;;;;;;;5.67;2.30;;;-13.20;99.90;;;;;;5028453;28;20203;-74
2022/10/26 00:28:27;;;;;;;5.53;3.73;;;-13.10;99.90;;;;;;5033781;28;20246;-78
2022/10/26 00:30:53;;;;;;;7.87;2.87;;;-12.50;99.90;;;;;;5028190;28;20227;-78
2022/10/26 00:33:19;;;;;;;5.53;2.47;;;-13.70;99.90;;;;;;5033257;28;20232;-78
2022/10/26 00:35:52;;;;;;;6.30;2.40;;;-11.70;99.90;;;;;;5034837;28;20592;-78
2022/10/26 00:38:18;;;;;;;7.40;3.00;;;-12.00;99.90;;;;;;5032604;28;20188;-74
2022/10/26 00:40:44;;;;;;;4.83;2.60;;;-13.70;99.90;;;;;;5029597;28;20189;-74
2022/10/26 00:43:33;;;;;;;6.17;2.30;;;-13.20;99.90;;;;;;5026706;28;20627;-77
2022/10/26 00:46:01;;;;;;;7.83;2.87;;;-12.50;99.90;;;;;;5014188;28;20604;-75
2022/10/26 00:48:37;;;;;;;29.73;4.17;;;-12.90;99.90;;;;;;5023825;28;20242;-74
2022/10/26 00:51:12;;;;;;;4.33;1.87;;;-11.40;99.90;;;;;;5029992;28;20191;-77
2022/10/26 00:53:38;;;;;;;6.77;2.77;;;-12.60;99.90;;;;;;5035134;28;20575;-71
2022/10/26 00:56:04;;;;;;;3.63;2.00;;;-14.00;99.90;;;;;;5028689;28;20191;-71
2022/10/26 00:58:31;;;;;;;28.40;2.70;;;-14.70;99.90;;;;;;5033844;28;20184;-75
2022/10/26 01:00:57;;;;;;;6.57;2.00;;;-14.90;99.90;;;;;;5026203;28;20295;-74
2022/10/26 01:03:26;;;;;;;4.60;2.13;;;-15.50;99.90;;;;;;5029734;28;20295;-73
2022/10/26 01:05:56;;;;;;;12.60;3.50;;;-13.80;99.90;;;;;;5035071;28;20195;-73
2022/10/26 01:08:22;;;;;;;3.07;2.07;;;-13.70;99.90;;;;;;5034843;28;20180;-70
2022/10/26 01:10:48;;;;;;;7.07;1.90;;;-13.60;99.90;;;;;;5029780;28;20181;-70
2022/10/26 01:13:16;;;;;;;9.70;2.10;;;-14.80;99.90;;;;;;5026833;28;20233;-76
2022/10/26 01:15:57;;;;;;;8.33;2.40;;;-13.70;99.90;;;;;;5038818;28;20307;-72
2022/10/26 01:18:39;;;;;;;6.67;2.60;;;-13.90;99.90;;;;;;5029175;28;20262;-75
2022/10/26 01:21:26;;;;;;;3.33;2.37;;;-14.30;99.90;;;;;;5026505;28;20255;-71
2022/10/26 01:24:22;;;;;;;4.80;2.33;;;-15.30;99.90;;;;;;5020112;28;20530;-70
2022/10/26 01:27:16;;;;;;;4.00;2.53;;;-15.20;99.90;;;;;;5036437;28;20251;-72
2022/10/26 01:30:03;;;;;;;9.67;2.60;;;-14.50;99.90;;;;;;5029568;28;20601;-74
2022/10/26 01:32:46;;;;;;;12.03;2.57;;;-13.20;99.90;;;;;;5038319;28;20189;-78
2022/10/26 01:35:22;;;;;;;3.90;2.53;;;-13.30;99.90;;;;;;5031768;28;20185;-76
2022/10/26 01:38:11;;;;;;;3.87;2.17;;;-13.10;99.90;;;;;;5028380;28;20192;-73
2022/10/26 01:41:07;;;;;;;3.77;2.17;;;-11.70;99.90;;;;;;5027465;28;20604;-76
2022/10/26 01:43:38;;;;;;;5.43;2.03;;;-11.10;99.90;;;;;;5023459;28;20220;-71
2022/10/26 01:46:06;;;;;;;6.10;2.30;;;-16.60;99.90;;;;;;5038241;28;20172;-72
2022/10/26 01:48:33;;;;;;;5.77;2.47;;;-16.30;99.90;;;;;;5037798;28;20199;-74
2022/10/26 01:51:00;;;;;;;4.27;2.00;;;-14.50;99.90;;;;;;5053515;28;20231;-74
2022/10/26 01:53:27;;;;;;;3.53;2.10;;;-13.30;99.90;;;;;;5037872;28;20176;-72
2022/10/26 01:55:54;;;;;;;3.73;2.27;;;-13.60;99.90;;;;;;5037913;28;20168;-74
2022/10/26 01:58:38;;;;;;;6.60;1.93;;;-14.00;99.90;;;;;;5036674;28;20597;-72
2022/10/26 02:01:12;;;;;;;2.37;2.00;;;-15.60;99.90;;;;;;5046702;28;20199;-72
2022/10/26 02:03:56;;;;;;;10.63;2.87;;;-14.50;99.90;;;;;;5023791;28;20251;-70
2022/10/26 02:06:35;;;;;;;15.70;2.20;;;-15.30;99.90;;;;;;5030519;28;20177;-73
2022/10/26 02:09:13;;;;;;;3.07;1.87;;;-15.30;99.90;;;;;;5029595;28;20230;-72
2022/10/26 02:11:45;;;;;;;2.53;1.80;;;-17.10;99.90;;;;;;5037672;28;20588;-72
2022/10/26 02:14:19;;;;;;;4.90;1.47;;;-18.60;99.90;;;;;;5034538;28;20525;-71
2022/10/26 02:16:55;;;;;;;3.97;2.50;;;-18.80;99.90;;;;;;5031213;28;20176;-69
2022/10/26 02:19:59;;;;;;;4.50;1.87;;;-19.70;99.90;;;;;;5025399;28;20188;-71
2022/10/26 02:22:34;;;;;;;3.37;2.07;;;-16.60;99.90;;;;;;5028442;28;20231;-72
2022/10/26 02:25:06;;;;;;;4.73;1.67;;;-16.00;99.90;;;;;;5034084;28;20251;-72
2022/10/26 02:27:37;;;;;;;4.30;1.73;;;-19.00;99.90;;;;;;5037428;28;20487;-72
2022/10/26 02:30:04;;;;;;;5.37;1.70;;;-17.80;99.90;;;;;;5030312;28;20181;-75
2022/10/26 02:32:34;;;;;;;4.60;1.77;;;-17.60;99.90;;;;;;5036769;28;20747;-71
2022/10/26 02:35:02;;;;;;;3.30;1.97;;;-21.00;99.90;;;;;;5021454;28;20243;-74
2022/10/26 02:37:30;;;;;;;1.53;1.43;;;-19.00;99.90;;;;;;5036195;28;20180;-74
2022/10/26 02:39:58;;;;;;;8.67;1.47;;;-17.50;99.90;;;;;;5036669;28;20242;-74
2022/10/26 02:42:26;;;;;;;13.87;1.80;;;-17.40;99.90;;;;;;5036905;28;20254;-70
2022/10/26 02:44:59;;;;;;;4.97;1.60;;;-14.10;99.90;;;;;;5036849;28;20180;-72
2022/10/26 02:47:25;;;;;;;2.20;1.67;;;-15.70;99.90;;;;;;5029321;28;20168;-70
2022/10/26 02:49:52;;;;;;;9.27;2.30;;;-15.70;99.90;;;;;;5036888;28;20222;-72
2022/10/26 02:52:29;;;;;;;11.33;1.70;;;-15.40;99.90;;;;;;5024899;28;20180;-69
2022/10/26 02:55:18;;;;;;;3.57;1.80;;;-12.40;99.90;;;;;;5034815;28;20179;-71
2022/10/26 02:57:49;;;;;;;5.23;1.90;;;-13.80;99.90;;;;;;5032692;28;20187;-70
2022/10/26 03:00:17;;;;;;;4.03;2.10;;;-14.30;99.90;;;;;;5030204;28;20184;-70
2022/10/26 03:02:49;;;;;;;3.17;1.93;;;-13.30;99.90;;;;;;5023370;28;20221;-71
2022/10/26 03:05:21;;;;;;;16.50;2.97;;;-12.00;99.90;;;;;;5036348;28;20184;-72
2022/10/26 03:07:47;;;;;;;4.67;1.50;;;-12.80;99.90;;;;;;5025711;28;20204;-74
2022/10/26 03:10:13;;;;;;;4.07;1.67;;;-12.20;99.90;;;;;;5022301;28;20208;-74
2022/10/26 03:12:38;;;;;;;2.90;1.43;;;-12.30;99.90;;;;;;5027154;28;20187;-71
2022/10/26 03:15:05;;;;;;;3.17;1.40;;;-12.10;99.90;;;;;;5031385;28;20181;-72
2022/10/26 03:17:30;;;;;;;6.17;1.60;;;-12.00;99.90;;;;;;5035953;28;20246;-71
2022/10/26 03:19:56;;;;;;;2.57;0.90;;;-12.20;99.90;;;;;;5032141;28;20584;-70
2022/10/26 03:22:22;;;;;;;2.03;1.47;;;-12.00;99.90;;;;;;5031723;28;20181;-71
2022/10/26 03:24:48;;;;;;;3.23;1.80;;;-12.80;99.90;;;;;;5030722;28;20184;-71
2022/10/26 03:27:14;;;;;;;4.70;1.53;;;-13.20;99.90;;;;;;5036714;28;20185;-72
2022/10/26 03:29:39;;;;;;;2.90;1.73;;;-16.30;99.90;;;;;;5028880;28;20183;-71
2022/10/26 03:32:06;;;;;;;5.70;1.30;;;-14.10;99.90;;;;;;5029869;28;20553;-70
2022/10/26 03:34:32;;;;;;;3.43;1.20;;;-16.80;99.90;;;;;;5035294;28;20200;-70
2022/10/26 03:36:57;;;;;;;3.90;1.77;;;-14.50;99.90;;;;;;5035944;28;20197;-74
2022/10/26 03:39:23;;;;;;;3.90;1.23;;;-13.90;99.90;;;;;;5036057;28;20211;-73
2022/10/26 03:41:49;;;;;;;4.67;1.77;;;-17.60;99.90;;;;;;5051362;28;20177;-75
2022/10/26 03:44:15;;;;;;;1.63;1.07;;;-18.20;99.90;;;;;;5035511;28;20201;-77
2022/10/26 03:46:41;;;;;;;16.57;2.83;;;-18.10;99.90;;;;;;5032231;28;20181;-76
2022/10/26 03:49:06;;;;;;;1.70;1.60;;;-16.20;99.90;;;;;;5025873;28;20177;-73
2022/10/26 03:51:32;;;;;;;5.77;2.03;;;-19.10;99.90;;;;;;5023592;28;20608;-72
2022/10/26 03:53:58;;;;;;;5.07;1.30;;;-16.60;99.90;;;;;;5027920;28;20223;-75
2022/10/26 03:56:24;;;;;;;8.20;2.97;;;-14.80;99.90;;;;;;5045497;28;20211;-75
2022/10/26 03:58:50;;;;;;;4.07;1.83;;;-16.90;99.90;;;;;;5025402;28;20184;-77
2022/10/26 04:01:16;;;;;;;8.10;1.77;;;-16.30;99.90;;;;;;5034804;28;20192;-76
2022/10/26 04:03:43;;;;;;;2.43;1.57;;;-14.70;99.90;;;;;;5034246;28;20220;-76
2022/10/26 04:06:09;;;;;;;3.10;1.93;;;-15.10;99.90;;;;;;5027953;28;20183;-75
2022/10/26 04:08:34;;;;;;;4.83;2.10;;;-13.90;99.90;;;;;;5024742;28;20225;-77
2022/10/26 04:11:00;;;;;;;5.07;2.00;;;-11.80;99.90;;;;;;5026460;28;20185;-73
2022/10/26 04:13:26;;;;;;;11.77;1.90;;;-13.30;99.90;;;;;;5028066;28;20184;-74
2022/10/26 04:15:52;;;;;;;5.13;2.27;;;-13.40;99.90;;;;;;5031203;28;20668;-69
2022/10/26 04:18:18;;;;;;;3.47;1.63;;;-13.10;99.90;;;;;;5051054;28;20212;-70
2022/10/26 04:20:43;;;;;;;4.87;2.07;;;-12.50;99.90;;;;;;5028303;28;20196;-71
2022/10/26 04:23:12;;;;;;;8.87;3.07;;;-14.60;99.90;;;;;;5035336;28;20296;-70
2022/10/26 04:25:38;;;;;;;2.87;2.07;;;-14.50;99.90;;;;;;5020556;28;20201;-70
2022/10/26 04:28:05;;;;;;;5.13;3.27;;;-14.90;99.90;;;;;;5028430;28;20215;-70
2022/10/26 04:30:31;;;;;;;4.23;1.87;;;-12.90;99.90;;;;;;5030956;28;20239;-77
2022/10/26 04:32:57;;;;;;;4.63;1.90;;;-10.90;99.90;;;;;;5050620;28;20220;-75
2022/10/26 04:35:23;;;;;;;5.43;2.10;;;-9.70;99.90;;;;;;5032073;28;20219;-77
2022/10/26 04:37:49;;;;;;;2.87;1.33;;;-11.30;99.90;;;;;;5033292;28;20188;-74
2022/10/26 04:40:14;;;;;;;3.03;1.93;;;-9.30;99.90;;;;;;5028214;28;20189;-78
2022/10/26 04:42:44;;;;;;;1.87;1.53;;;-11.50;99.90;;;;;;5025417;28;20219;-77
2022/10/26 04:45:11;;;;;;;3.23;1.43;;;-10.90;99.90;;;;;;5037781;28;20196;-70
2022/10/26 04:47:37;;;;;;;2.43;1.67;;;-10.50;99.90;;;;;;5054543;28;20177;-69
2022/10/26 04:50:04;;;;;;;4.63;1.57;;;-11.20;99.90;;;;;;5048767;28;20262;-69
2022/10/26 04:52:30;;;;;;;5.70;1.70;;;-9.90;99.90;;;;;;5023881;28;20219;-69
2022/10/26 04:54:56;;;;;;;2.23;1.30;;;-11.70;99.90;;;;;;5035389;28;20270;-70
2022/10/26 04:57:22;;;;;;;5.63;1.97;;;-9.20;99.90;;;;;;5028344;28;20186;-70
2022/10/26 04:59:47;;;;;;;5.03;1.77;;;-10.80;99.90;;;;;;5026940;28;20604;-77
2022/10/26 05:02:13;;;;;;;1.40;1.30;;;-11.40;99.90;;;;;;5045880;28;20642;-75
2022/10/26 05:04:39;;;;;;;2.30;1.67;;;-9.70;99.90;;;;;;5034930;28;20497;-77
2022/10/26 05:07:04;;;;;;;4.53;2.10;;;-10.10;99.90;;;;;;5038871;28;20496;-77
2022/10/26 05:09:30;;;;;;;2.90;2.60;;;-9.40;99.90;;;;;;5026507;28;20197;-78
2022/10/26 05:11:56;;;;;;;3.57;1.50;;;-10.10;99.90;;;;;;5038112;28;20188;-75
2022/10/26 05:14:21;;;;;;;16.50;1.70;;;-12.00;99.90;;;;;;5033829;28;20191;-73
2022/10/26 05:16:50;;;;;;;2.37;1.60;;;-9.90;99.90;;;;;;5048967;28;20181;-70
2022/10/26 05:19:15;;;;;;;3.90;1.57;;;-11.70;99.90;;;;;;5034364;28;20638;-70
2022/10/26 05:21:42;;;;;;;3.80;2.40;;;-11.30;99.90;;;;;;5032568;28;20184;-72
2022/10/26 05:24:07;;;;;;;2.93;2.00;;;-11.20;99.90;;;;;;5038020;28;20207;-71
2022/10/26 05:26:33;;;;;;;2.57;1.23;;;-10.90;99.90;;;;;;5038359;28;20172;-69
2022/10/26 05:28:59;;;;;;;5.93;1.33;;;-9.70;99.90;;;;;;5029213;28;20489;-72
2022/10/26 05:31:24;;;;;;;2.23;1.63;;;-12.30;99.90;;;;;;5035939;28;20196;-76
2022/10/26 05:33:51;;;;;;;4.20;1.60;;;-12.00;99.90;;;;;;5033383;28;20223;-75
2022/10/26 05:36:17;;;;;;;3.77;1.97;;;-13.30;99.90;;;;;;5027810;28;20191;-78
2022/10/26 05:38:43;;;;;;;9.03;2.47;;;-11.50;99.90;;;;;;5027355;28;20185;-75
2022/10/26 05:41:09;;;;;;;5.13;3.00;;;-8.30;99.90;;;;;;5028739;28;20177;-71
2022/10/26 05:43:35;;;;;;;3.87;1.93;;;-7.00;99.90;;;;;;5030542;28;20235;-72
2022/10/26 05:46:01;;;;;;;3.93;1.47;;;-8.10;99.90;;;;;;5025827;28;20176;-71
2022/10/26 05:48:26;;;;;;;3.70;2.53;;;-9.90;99.90;;;;;;5037573;28;20184;-77
2022/10/26 05:50:52;;;;;;;7.33;2.73;;;-10.10;99.90;;;;;;5032229;28;20260;-74
2022/10/26 05:53:18;;;;;;;5.30;1.83;;;-13.20;99.90;;;;;;5030069;28;20194;-79
2022/10/26 05:55:44;;;;;;;24.47;2.77;;;-11.30;99.90;;;;;;5025143;28;20184;-75
2022/10/26 05:58:12;;;;;;;4.00;2.13;;;-12.60;99.90;;;;;;5020093;28;20178;-71
2022/10/26 06:00:48;;;;;;;7.13;2.63;;;-12.50;99.90;;;;;;5027750;28;20184;-83
2022/10/26 06:03:44;;;;;;;4.00;1.37;;;-12.40;99.90;;;;;;5052155;28;20239;-74
2022/10/26 06:06:12;;;;;;;7.60;1.83;;;-10.50;99.90;;;;;;5021961;28;20216;-71
2022/10/26 06:08:38;;;;;;;3.30;1.87;;;-11.70;99.90;;;;;;5035283;28;20460;-72
2022/10/26 06:11:05;;;;;;;7.23;2.37;;;-11.80;99.90;;;;;;5024029;28;20590;-73
2022/10/26 06:13:32;;;;;;;5.20;2.43;;;-11.60;99.90;;;;;;5029397;28;20188;-73
2022/10/26 06:16:20;;;;;;;3.50;1.83;;;-12.20;99.90;;;;;;5048468;28;20477;-78
2022/10/26 06:19:14;;;;;;;7.93;1.83;;;-14.30;99.90;;;;;;5032026;28;20267;-78
2022/10/26 06:21:40;;;;;;;5.40;3.13;;;-11.00;99.90;;;;;;5027264;28;20186;-73
2022/10/26 06:24:19;;;;;;;3.63;1.97;;;-11.60;99.90;;;;;;5037285;28;20208;-76
2022/10/26 06:27:06;;;;;;;8.57;3.07;;;-14.50;99.90;;;;;;5029953;28;20231;-75
2022/10/26 06:29:48;;;;;;;5.00;2.27;;;-13.60;99.90;;;;;;5026188;28;20677;-74
2022/10/26 06:32:16;;;;;;;4.30;2.07;;;-11.90;99.90;;;;;;5037392;28;20222;-72
2022/10/26 06:34:47;;;;;;;4.10;2.03;;;-11.30;99.90;;;;;;5037061;28;20238;-74
2022/10/26 06:37:13;;;;;;;5.27;2.17;;;-9.30;99.90;;;;;;5030973;28;20267;-71
2022/10/26 06:39:44;;;;;;;4.57;3.03;;;-11.00;99.90;;;;;;5026333;28;20565;-74
2022/10/26 06:42:10;;;;;;;5.53;2.17;;;-15.70;99.90;;;;;;5035601;28;20646;-76
2022/10/26 06:44:37;;;;;;;7.77;2.70;;;-12.30;99.90;;;;;;5026609;28;20209;-70
2022/10/26 06:47:14;;;;;;;6.83;2.77;;;-10.90;99.90;;;;;;5029620;28;20607;-75
2022/10/26 06:50:01;;;;;;;4.33;2.77;;;-10.10;99.90;;;;;;5022116;28;20209;-73
2022/10/26 06:52:40;;;;;;;8.60;3.10;;;-10.30;99.90;;;;;;5029229;28;20618;-73
2022/10/26 06:55:15;;;;;;;4.10;2.57;;;-10.20;99.90;;;;;;5033277;28;20193;-74
2022/10/26 06:57:42;;;;;;;2.80;2.00;;;-10.20;99.90;;;;;;5026030;28;20218;-75
2022/10/26 07:00:20;;;;;;;9.30;3.50;;;-10.60;99.90;;;;;;5030241;28;20216;-74
2022/10/26 07:02:49;;;;;;;2.40;2.20;;;-15.10;99.90;;;;;;5030248;28;20561;-73
2022/10/26 07:05:15;;;;;;;6.37;3.30;;;-13.70;99.90;;;;;;5029600;28;20181;-73
2022/10/26 07:07:43;;;;;;;4.80;2.90;;;-15.50;99.90;;;;;;5031406;28;20183;-71
2022/10/26 07:10:10;;;;;;;5.33;2.53;;;-14.60;99.90;;;;;;5022087;28;20173;-72
2022/10/26 07:12:37;;;;;;;3.37;2.57;;;-16.40;99.90;;;;;;5036299;28;20176;-70
2022/10/26 07:15:04;;;;;;;6.33;2.80;;;-13.00;99.90;;;;;;5036425;28;20195;-73
2022/10/26 07:17:30;;;;;;;8.63;2.77;;;-15.40;99.90;;;;;;5035987;28;20180;-71
2022/10/26 07:19:55;;;;;;;3.43;2.03;;;-13.00;99.90;;;;;;5035914;28;20187;-73
2022/10/26 07:22:22;;;;;;;17.03;3.00;;;-16.10;99.90;;;;;;5035636;28;20546;-70
2022/10/26 07:24:50;;;;;;;6.20;3.10;;;-18.40;99.90;;;;;;5036399;28;20180;-73
2022/10/26 07:27:18;;;;;;;6.13;2.90;;;-20.70;99.90;;;;;;5028294;28;20181;-74
2022/10/26 07:29:44;;;;;;;6.27;2.70;;;-16.70;99.90;;;;;;5023676;28;20181;-71
2022/10/26 07:32:10;;;;;;;8.10;2.00;;;-15.40;99.90;;;;;;5025899;28;20181;-74
2022/10/26 07:34:36;;;;;;;7.90;3.00;;;-15.10;99.90;;;;;;5030206;28;20188;-68
2022/10/26 07:37:01;;;;;;;5.57;2.77;;;-12.90;99.90;;;;;;5026223;28;20190;-71
2022/10/26 07:39:27;;;;;;;10.83;3.20;;;-12.50;99.90;;;;;;5035994;28;20180;-69
2022/10/26 07:41:53;;;;;;;4.20;1.97;;;-11.40;99.90;;;;;;5028503;28;20585;-72
2022/10/26 07:44:19;;;;;;;5.10;3.23;;;-13.10;99.90;;;;;;5028618;28;20205;-70
2022/10/26 07:46:44;;;;;;;5.27;2.30;;;-17.80;99.90;;;;;;5030237;28;20262;-69
2022/10/26 07:49:10;;;;;;;5.07;2.60;;;-18.10;99.90;;;;;;5027834;28;20183;-73
2022/10/26 07:51:36;;;;;;;4.67;2.20;;;-14.40;99.90;;;;;;5033992;28;20479;-75
2022/10/26 07:54:02;;;;;;;6.40;2.53;;;-14.70;99.90;;;;;;5036055;28;20185;-75
2022/10/26 07:56:28;;;;;;;3.47;1.80;;;-16.40;99.90;;;;;;5031249;28;20185;-71
2022/10/26 07:58:54;;;;;;;4.93;2.90;;;-15.10;99.90;;;;;;5035476;28;20180;-76
2022/10/26 08:01:20;;;;;;;9.07;2.80;;;-16.10;99.90;;;;;;5036728;28;20201;-70
2022/10/26 08:03:46;;;;;;;7.77;2.00;;;-13.40;99.90;;;;;;5024495;28;20212;-69
2022/10/26 08:06:13;;;;;;;3.50;2.23;;;-13.90;99.90;;;;;;5029632;28;20165;-71
2022/10/26 08:08:39;;;;;;;6.77;3.17;;;-16.70;99.90;;;;;;5035064;28;20189;-74
2022/10/26 08:11:05;;;;;;;5.30;1.93;;;-16.80;99.90;;;;;;5034985;28;20181;-74
2022/10/26 08:13:31;;;;;;;5.83;2.00;;;-11.40;99.90;;;;;;5018081;28;20193;-74
2022/10/26 08:15:58;;;;;;;5.97;1.93;;;-14.70;99.90;;;;;;5035636;28;20538;-76
2022/10/26 08:18:24;;;;;;;6.33;2.17;;;-14.00;99.90;;;;;;5044767;28;20296;-75
2022/10/26 08:20:50;;;;;;;8.17;3.23;;;-17.50;99.90;;;;;;5028376;28;20625;-69
2022/10/26 08:23:15;;;;;;;7.17;2.10;;;-19.90;99.90;;;;;;5034194;28;20196;-72
2022/10/26 08:25:41;;;;;;;5.03;1.93;;;-18.80;99.90;;;;;;5039288;28;20184;-70
2022/10/26 08:28:07;;;;;;;5.37;2.40;;;-19.90;99.90;;;;;;5032760;28;20264;-69
2022/10/26 08:30:33;;;;;;;4.37;1.93;;;-19.40;99.90;;;;;;5029120;28;20208;-71
2022/10/26 08:33:04;;;;;;;3.60;2.03;;;-14.60;99.90;;;;;;5039206;28;20191;-71
2022/10/26 08:35:31;;;;;;;12.33;2.80;;;-22.50;99.90;;;;;;5026282;28;20172;-72
2022/10/26 08:37:57;;;;;;;6.60;1.97;;;-19.30;99.90;;;;;;5028485;28;20174;-71
2022/10/26 08:40:29;;;;;;;9.10;1.87;;;-18.90;99.90;;;;;;5047014;28;20191;-71
2022/10/26 08:43:06;;;;;;;2.90;1.87;;;-29.70;99.90;;;;;;5033856;28;20257;-74
2022/10/26 08:45:37;;;;;;;7.10;2.33;;;-21.20;99.90;;;;;;5039316;28;20171;-74
2022/10/26 08:48:14;;;;;;;6.03;1.50;;;-19.10;99.90;;;;;;5032542;28;20176;-75
2022/10/26 08:50:49;;;;;;;5.83;1.93;;;-26.40;99.90;;;;;;5033046;28;20223;-70
2022/10/26 08:53:42;;;;;;;5.93;1.90;;;-25.50;99.90;;;;;;5036938;28;20667;-71
2022/10/26 08:56:11;;;;;;;4.13;1.83;;;-24.80;99.90;;;;;;5038442;28;20208;-71
2022/10/26 08:58:44;;;;;;;7.33;2.00;;;-26.20;99.90;;;;;;5031486;28;20196;-71
2022/10/26 09:01:10;;;;;;;4.10;1.37;;;-21.90;99.90;;;;;;5033514;28;20204;-70
2022/10/26 09:03:35;;;;;;;3.23;2.20;;;-21.30;99.90;;;;;;5038422;28;20570;-71
2022/10/26 09:06:35;;;;;;;5.40;1.70;;;-20.50;99.90;;;;;;5038924;28;20181;-70
2022/10/26 09:09:06;;;;;;;5.13;2.20;;;-20.80;99.90;;;;;;5033804;28;20177;-73
2022/10/26 09:11:51;;;;;;;2.30;1.20;;;-26.10;99.90;;;;;;5038987;28;20173;-70
2022/10/26 09:14:23;;;;;;;4.73;1.50;;;-31.50;99.90;;;;;;5038548;28;20615;-73
2022/10/26 09:16:55;;;;;;;1.60;1.50;;;-31.70;99.90;;;;;;5047761;28;20183;-69
2022/10/26 09:19:20;;;;;;;5.30;1.80;;;-26.90;99.90;;;;;;5027366;28;20480;-72
2022/10/26 09:22:14;;;;;;;2.73;1.93;;;-27.20;99.90;;;;;;5029366;28;20176;-71
2022/10/26 09:24:54;;;;;;;6.30;1.93;;;-21.50;99.90;;;;;;5048534;28;20214;-70
2022/10/26 09:27:27;;;;;;;8.20;1.53;;;-31.80;99.90;;;;;;5029905;28;20199;-70
2022/10/26 09:29:56;;;;;;;6.83;1.93;;;-23.00;99.90;;;;;;5037160;28;20200;-70
2022/10/26 09:32:33;;;;;;;5.90;1.90;;;-26.90;99.90;;;;;;5031674;28;20187;-69
2022/10/26 09:35:04;;;;;;;1.80;1.27;;;-33.40;99.90;;;;;;5030773;28;20230;-70
2022/10/26 09:37:45;;;;;;;4.43;1.20;;;-40.00;99.90;;;;;;5032141;28;20271;-68
2022/10/26 09:40:45;;;;;;;5.40;1.60;;;-39.10;99.90;;;;;;5027289;28;20316;-70
2022/10/26 09:43:19;;;;;;;2.90;1.50;;;-37.80;99.90;;;;;;5009571;28;20228;-70
2022/10/26 09:45:49;;;;;;;3.87;2.27;;;-33.10;99.90;;;;;;5019951;28;20183;-70
2022/10/26 09:49:09;;;;;;;8.47;2.20;;;-36.70;99.90;;;;;;5028161;28;20263;-69
2022/10/26 09:51:37;;;;;;;2.27;1.20;;;-39.60;99.90;;;;;;5007693;28;20190;-72
2022/10/26 09:54:17;;;;;;;12.30;1.80;;;-40.00;99.90;;;;;;5004451;28;20268;-69
2022/10/26 09:56:55;;;;;;;8.73;2.20;;;-40.00;99.90;;;;;;5020858;28;20196;-69
2022/10/26 09:59:23;;;;;;;5.87;2.23;;;-40.00;99.90;;;;;;5037794;28;20212;-70
2022/10/26 10:01:49;;;;;;;6.60;1.67;;;-40.00;99.90;;;;;;5034924;28;20224;-69
2022/10/26 10:04:27;;;;;;;4.40;1.53;;;-40.00;99.90;;;;;;5036427;28;20239;-71
2022/10/26 10:07:12;;;;;;;4.27;1.97;;;-40.00;99.90;;;;;;5018501;28;20511;-70
2022/10/26 10:09:38;;;;;;;3.43;1.50;;;-40.00;99.90;;;;;;5030380;28;20284;-69
2022/10/26 10:12:05;;;;;;;3.30;1.90;;;-40.00;99.90;;;;;;5038083;28;20268;-69
2022/10/26 10:14:36;;;;;;;2.60;1.83;;;-40.00;99.90;;;;;;5037357;28;20176;-69
2022/10/26 10:17:20;;;;;;;2.60;1.73;;;-40.00;99.90;;;;;;5032716;28;20185;-70
2022/10/26 10:19:46;;;;;;;6.97;1.90;;;-40.00;99.90;;;;;;5021455;28;20231;-70
2022/10/26 10:22:25;;;;;;;4.67;1.57;;;-40.00;99.90;;;;;;5037546;28;20172;-75
2022/10/26 10:25:05;;;;;;;7.30;1.60;;;-40.00;99.90;;;;;;5026621;28;20208;-76
2022/10/26 10:27:32;;;;;;;4.13;1.33;;;-40.00;99.90;;;;;;5026224;28;20207;-73
2022/10/26 10:30:18;;;;;;;2.57;1.50;;;-40.00;99.90;;;;;;5029524;28;20177;-74
2022/10/26 10:32:44;;;;;;;2.07;1.40;;;-40.00;99.90;;;;;;5027781;28;20199;-75
2022/10/26 10:35:24;;;;;;;4.93;1.47;;;-40.00;99.90;;;;;;5037152;28;20181;-74
2022/10/26 10:37:50;;;;;;;1.63;1.30;;;-40.00;99.90;;;;;;5031237;28;20194;-71
2022/10/26 10:40:29;;;;;;;4.27;2.10;;;-40.00;99.90;;;;;;5036851;28;20188;-70
2022/10/26 10:43:11;;;;;;;1.70;1.33;;;-40.00;99.90;;;;;;5030612;28;20201;-70
2022/10/26 10:45:37;;;;;;;6.30;2.10;;;-40.00;99.90;;;;;;5027804;28;20175;-73
2022/10/26 10:48:12;;;;;;;1.53;0.87;;;-40.00;99.90;;;;;;5030554;28;20188;-74
2022/10/26 10:50:50;;;;;;;1.93;1.20;;;-40.00;99.90;;;;;;5042961;28;20489;-73
2022/10/26 10:53:34;;;;;;;3.60;1.57;;;-40.00;99.90;;;;;;5034233;28;20188;-67
2022/10/26 10:56:08;;;;;;;3.83;1.20;;;-40.00;99.90;;;;;;5049169;28;20623;-72
2022/10/26 10:59:01;;;;;;;7.27;1.57;;;-40.00;99.90;;;;;;5036895;28;20180;-73
2022/10/26 11:01:34;;;;;;;0.80;0.80;;;-40.00;99.90;;;;;;5029892;28;20220;-74
2022/10/26 11:04:06;;;;;;;2.07;1.77;;;-40.00;99.90;;;;;;5036656;28;20209;-74
2022/10/26 11:06:37;;;;;;;3.97;1.70;;;-40.00;99.90;;;;;;5031411;28;20192;-74
2022/10/26 11:09:13;;;;;;;3.13;1.20;;;-40.00;99.90;;;;;;5026230;28;20581;-79
2022/10/26 11:11:51;;;;;;;1.40;1.30;;;-40.00;99.90;;;;;;5031245;28;20522;-69
2022/10/26 11:14:40;;;;;;;2.00;1.30;;;-40.00;99.90;;;;;;5030794;28;20180;-72
2022/10/26 11:17:23;;;;;;;4.43;1.10;;;-40.00;99.90;;;;;;5030995;28;20193;-71
2022/10/26 11:20:04;;;;;;;3.23;1.37;;;-40.00;99.90;;;;;;5036488;28;20284;-72
2022/10/26 11:22:39;;;;;;;6.87;1.60;;;-40.00;99.90;;;;;;5025132;28;20193;-70
2022/10/26 11:25:25;;;;;;;3.57;1.03;;;-40.00;99.90;;;;;;5028609;28;20186;-72
2022/10/26 11:28:09;;;;;;;2.03;1.10;;;-40.00;99.90;;;;;;5044231;28;20185;-74
2022/10/26 11:30:42;;;;;;;3.07;1.93;;;-40.00;99.90;;;;;;5024721;28;20479;-68
2022/10/26 11:33:18;;;;;;;3.73;1.13;;;-40.00;99.90;;;;;;5034356;28;20192;-68
2022/10/26 11:35:53;;;;;;;3.87;1.17;;;-40.00;99.90;;;;;;5036528;28;20187;-69
2022/10/26 11:38:38;;;;;;;1.93;1.50;;;-40.00;99.90;;;;;;5030046;28;20488;-71
2022/10/26 11:41:14;;;;;;;1.70;1.03;;;-40.00;99.90;;;;;;5024031;28;20185;-77
2022/10/26 11:44:04;;;;;;;11.70;2.17;;;-40.00;99.90;;;;;;5038081;28;20239;-71
2022/10/26 11:46:54;;;;;;;3.13;1.23;;;-40.00;99.90;;;;;;5035592;28;20194;-72
2022/10/26 11:49:19;;;;;;;3.40;1.17;;;-40.00;99.90;;;;;;5034787;28;20219;-78
2022/10/26 11:51:48;;;;;;;4.50;1.03;;;-40.00;99.90;;;;;;5034855;28;20204;-73
2022/10/26 11:54:41;;;;;;;1.43;1.07;;;-40.00;99.90;;;;;;5030272;28;20197;-75
2022/10/26 11:57:08;;;;;;;4.07;1.27;;;-40.00;99.60;;;;;;5023882;28;20214;-76
2022/10/26 11:59:48;;;;;;;2.77;1.30;;;-40.00;99.60;;;;;;5045473;28;20570;-76
2022/10/26 12:02:22;;;;;;;3.57;1.03;;;-40.00;98.60;;;;;;5029981;28;20711;-75
2022/10/26 12:05:01;;;;;;;5.60;1.63;;;-40.00;99.10;;;;;;5032031;28;20620;-77
2022/10/26 12:07:34;;;;;;;1.33;1.00;;;-40.00;97.90;;;;;;5030691;28;20189;-74
2022/10/26 12:10:02;;;;;;;2.53;1.17;;;-40.00;97.20;;;;;;5030835;28;20257;-71
2022/10/26 12:12:57;;;;;;;3.03;0.80;;;-40.00;96.70;;;;;;5021401;28;20185;-70
2022/10/26 12:15:33;;;;;;;1.93;0.97;;;-40.00;95.70;;;;;;5021811;28;20189;-73
2022/10/26 12:18:29;;;;;;;2.40;1.20;;;-40.00;94.40;;;;;;5018287;28;20188;-72
2022/10/26 12:21:09;;;;;;;2.77;1.93;;;-40.00;93.80;;;;;;5014484;28;20775;-71
2022/10/26 12:23:37;;;;;;;5.27;1.30;;;-40.00;93.50;;;;;;5030850;28;20212;-71
2022/10/26 12:26:22;;;;;;;2.13;1.23;;;-40.00;92.90;;;;;;5018317;28;20578;-70
2022/10/26 12:29:00;;;;;;;4.13;1.20;;;-40.00;92.00;;;;;;5035335;28;20185;-70
2022/10/26 12:31:31;;;;;;;2.50;1.70;;;-40.00;92.50;;;;;;5030295;28;20188;-69
2022/10/26 12:33:58;;;;;;;3.00;1.07;;;-40.00;93.20;;;;;;5039798;28;20188;-71
2022/10/26 12:37:09;;;;;;;4.07;1.63;;;-40.00;90.20;;;;;;5030608;28;20224;-70
2022/10/26 12:39:38;;;;;;;3.13;1.10;;;-40.00;90.00;;;;;;5027435;28;20176;-70
2022/10/26 12:42:03;;;;;;;4.60;1.13;;;-40.00;87.60;;;;;;5034844;28;20315;-72
2022/10/26 12:44:46;;;;;;;2.97;1.30;;;-40.00;89.20;;;;;;5017521;28;20585;-70
2022/10/26 12:47:38;;;;;;;2.03;1.40;;;-40.00;86.70;;;;;;5048397;28;20190;-71
2022/10/26 12:50:06;;;;;;;6.90;1.33;;;-40.00;84.80;;;;;;5011116;28;20579;-71
2022/10/26 12:52:44;;;;;;;2.63;1.37;;;-40.00;83.60;;;;;;5050647;28;20564;-70
2022/10/26 12:55:39;;;;;;;4.63;1.13;;;-40.00;81.50;;;;;;5027616;28;20194;-69
2022/10/26 12:58:17;;;;;;;1.40;0.87;;;-40.00;82.10;;;;;;5023036;28;20265;-69
2022/10/26 13:01:28;;;;;;;5.63;1.10;;;-40.00;81.90;;;;;;5025839;28;20188;-70